Terminal Aerodrome Forecast
Issued by NWS

Home | Current Version | Previous Version | Text Only | Print | Product List | Glossary On
Versions: 1 2 3 4 5 6 7 8 9 10 11 12 13 14
000
FTUS45 KGJT 211736
TAFASE
TAF
KASE 211736Z 2118/2218 VRB04KT P6SM BKN035 OVC040
     FM212000 35008KT P6SM SCT040 BKN110
     FM220200 23005KT P6SM FEW120 SCT200
     FM221000 VRB03KT P6SM FEW110 SCT150=

USA.gov is the U.S. government's official web portal to all federal, state and local government web resources and services.